Time;durP1;ratioP1;P1;durP2;ratioP2;P2;SDS_P1;SDS_P2;PMS_P1;PMS_P2;Temp;Humidity;BMP_temperature;BMP_pressure;BME280_temperature;BME280_humidity;BME280_pressure;Samples;Min_cycle;Max_cycle;Signal;HPM_P1;HPM_P2
2022/01/08 00:00:12;;;;;;;53.05;19.52;;;;;;;3.43;72.49;100062.44;5082542;28;20119;-56
2022/01/08 00:02:38;;;;;;;50.00;18.15;;;;;;;3.44;72.45;100059.00;5074610;28;20441;-55
2022/01/08 00:05:04;;;;;;;48.72;18.15;;;;;;;3.48;72.62;100059.88;5074995;28;20035;-55
2022/01/08 00:07:30;;;;;;;42.75;15.88;;;;;;;3.47;72.49;100056.38;5085492;28;20053;-55
2022/01/08 00:09:55;;;;;;;43.47;16.38;;;;;;;3.48;72.67;100052.94;5075550;28;20040;-55
2022/01/08 00:12:21;;;;;;;44.80;16.98;;;;;;;3.49;72.69;100052.06;5095047;28;20460;-54
2022/01/08 00:14:46;;;;;;;44.53;17.23;;;;;;;3.44;72.74;100051.19;5094073;28;20111;-55
2022/01/08 00:17:12;;;;;;;25.50;12.23;;;;;;;3.44;73.02;100049.47;5094699;28;20446;-53
2022/01/08 00:19:38;;;;;;;32.83;13.25;;;;;;;3.45;73.07;100051.19;5094917;28;20039;-56
2022/01/08 00:22:03;;;;;;;29.73;13.10;;;;;;;3.48;73.22;100052.06;5089399;28;20119;-54
2022/01/08 00:24:29;;;;;;;25.52;12.02;;;;;;;3.47;73.00;100053.78;5074797;28;20375;-56
2022/01/08 00:26:54;;;;;;;28.52;12.50;;;;;;;3.46;73.09;100052.06;5089787;28;20059;-56
2022/01/08 00:29:20;;;;;;;25.45;13.23;;;;;;;3.49;73.11;100049.47;5094238;28;20391;-56
2022/01/08 00:31:45;;;;;;;27.05;15.30;;;;;;;3.49;73.13;100041.66;5094860;28;20036;-56
2022/01/08 00:34:10;;;;;;;23.13;12.80;;;;;;;3.49;73.09;100040.81;5075849;28;20076;-56
2022/01/08 00:36:36;;;;;;;25.42;12.73;;;;;;;3.46;73.18;100044.25;5074348;28;20036;-56
2022/01/08 00:39:02;;;;;;;26.25;13.75;;;;;;;3.39;73.64;100047.69;5086167;28;20040;-58
2022/01/08 00:41:28;;;;;;;22.13;12.20;;;;;;;3.39;73.61;100042.50;5082769;28;20047;-56
2022/01/08 00:43:54;;;;;;;24.40;13.60;;;;;;;3.41;73.67;100046.84;5073591;28;20116;-57
2022/01/08 00:46:19;;;;;;;25.17;12.77;;;;;;;3.46;73.60;100052.06;5074302;28;20044;-53
2022/01/08 00:48:45;;;;;;;24.02;12.68;;;;;;;3.43;73.55;100042.53;5073661;28;20048;-55
2022/01/08 00:51:11;;;;;;;30.48;15.05;;;;;;;3.42;73.63;100034.72;5073964;28;20048;-56
2022/01/08 00:53:37;;;;;;;27.08;12.60;;;;;;;3.49;73.45;100039.06;5073033;28;20040;-56
2022/01/08 00:56:03;;;;;;;22.52;11.48;;;;;;;3.56;73.18;100039.97;5076280;28;20109;-56
2022/01/08 00:58:28;;;;;;;21.25;12.18;;;;;;;3.52;73.39;100035.63;5081480;28;20037;-56
2022/01/08 01:00:53;;;;;;;17.95;10.68;;;;;;;3.53;73.29;100039.94;5084601;28;20108;-56
2022/01/08 01:03:19;;;;;;;20.50;11.90;;;;;;;3.50;73.42;100033.00;5094083;28;20035;-56
2022/01/08 01:05:44;;;;;;;18.77;11.05;;;;;;;3.47;73.46;100048.56;5093129;28;20505;-55
2022/01/08 01:08:10;;;;;;;23.92;12.05;;;;;;;3.49;73.41;100039.06;5094113;28;20530;-56
2022/01/08 01:10:35;;;;;;;20.38;11.13;;;;;;;3.57;73.24;100039.09;5094243;28;20544;-55
2022/01/08 01:13:01;;;;;;;23.90;13.38;;;;;;;3.58;73.42;100036.47;5093568;28;20032;-56
2022/01/08 01:15:26;;;;;;;21.58;11.45;;;;;;;3.58;73.30;100038.22;5090739;28;20436;-57
2022/01/08 01:17:51;;;;;;;17.15;9.50;;;;;;;3.61;73.15;100040.81;5080760;28;20036;-56
2022/01/08 01:20:20;;;;;;;18.98;10.65;;;;;;;3.61;73.00;100036.50;5093665;28;20082;-56
2022/01/08 01:23:00;;;;;;;17.42;10.32;;;;;;;3.65;73.05;100038.22;5086838;28;20036;-58
2022/01/08 01:25:32;;;;;;;18.55;10.73;;;;;;;3.58;73.12;100040.81;5074022;28;20040;-56
2022/01/08 01:41:47;;;;;;;16.77;10.35;;;;;;;3.57;73.58;100021.75;5094229;28;20059;-57
2022/01/08 01:47:04;;;;;;;15.90;11.02;;;;;;;3.51;73.75;100016.59;5073306;28;20016;-58
2022/01/08 01:49:32;;;;;;;13.45;9.00;;;;;;;3.55;73.72;100017.41;5090138;28;20368;-57
2022/01/08 01:51:59;;;;;;;14.13;9.27;;;;;;;3.55;73.88;100015.72;5093024;28;20028;-57
2022/01/08 01:54:26;;;;;;;13.88;10.32;;;;;;;3.61;73.77;100014.84;5093518;28;20055;-57
2022/01/08 01:56:51;;;;;;;14.30;9.60;;;;;;;3.56;73.78;100001.84;5095913;28;20032;-57
2022/01/08 01:59:17;;;;;;;13.88;9.77;;;;;;;3.58;73.92;100007.03;5078142;28;20045;-57
2022/01/08 02:01:42;;;;;;;14.95;10.35;;;;;;;3.62;73.77;100000.97;5076113;28;20032;-58
2022/01/08 02:04:08;;;;;;;13.27;9.65;;;;;;;3.67;73.85;100005.34;5096284;28;20036;-57
2022/01/08 02:06:33;;;;;;;13.48;9.48;;;;;;;3.72;73.65;100001.88;5096873;28;20036;-54
2022/01/08 02:08:58;;;;;;;14.65;9.20;;;;;;;3.76;73.64;100008.78;5097486;28;20036;-55
2022/01/08 02:11:25;;;;;;;12.65;8.98;;;;;;;3.76;73.59;100006.19;5093868;28;20024;-55
2022/01/08 02:13:51;;;;;;;12.93;8.98;;;;;;;3.74;73.92;100002.72;5077056;28;20036;-55
2022/01/08 02:16:17;;;;;;;12.35;8.75;;;;;;;3.77;73.89;100005.31;5091934;28;20040;-54
2022/01/08 02:18:46;;;;;;;11.93;9.00;;;;;;;3.77;73.78;100006.19;5094897;28;20464;-55
2022/01/08 02:21:13;;;;;;;13.10;9.00;;;;;;;3.79;73.82;99998.38;5097202;28;20056;-55
2022/01/08 02:23:40;;;;;;;13.30;9.60;;;;;;;3.75;73.88;99986.25;5092857;28;20087;-55
2022/01/08 02:26:07;;;;;;;13.73;9.30;;;;;;;3.69;74.20;100003.59;5097090;28;20036;-55
2022/01/08 02:28:33;;;;;;;13.18;9.07;;;;;;;3.64;74.36;99987.13;5096086;28;20035;-54
2022/01/08 02:30:59;;;;;;;12.90;9.00;;;;;;;3.69;74.46;99994.94;5087719;28;20038;-57
2022/01/08 02:33:25;;;;;;;12.48;8.40;;;;;;;3.67;74.52;99987.16;5074834;28;20080;-55
2022/01/08 02:35:51;;;;;;;13.93;9.18;;;;;;;3.75;74.26;99994.94;5092025;28;20043;-55
2022/01/08 02:38:16;;;;;;;12.57;8.40;;;;;;;3.77;74.05;99985.41;5090675;28;20028;-55
2022/01/08 02:40:50;;;;;;;12.70;9.45;;;;;;;3.81;73.99;99992.31;5096725;28;20036;-55
2022/01/08 02:43:16;;;;;;;12.52;8.95;;;;;;;3.80;73.86;99994.94;5086813;28;20048;-55
2022/01/08 02:45:41;;;;;;;12.75;9.52;;;;;;;3.79;74.09;99995.78;5076389;28;20032;-54
2022/01/08 02:48:08;;;;;;;13.07;9.88;;;;;;;3.78;74.20;99986.25;5076434;28;20043;-56
2022/01/08 02:50:33;;;;;;;12.85;9.45;;;;;;;3.81;74.14;99987.13;5077084;28;20028;-57
2022/01/08 02:52:59;;;;;;;13.65;9.57;;;;;;;3.74;74.44;99984.53;5076351;28;20067;-55
2022/01/08 02:55:24;;;;;;;11.57;9.00;;;;;;;3.76;74.31;99988.88;5076460;28;20482;-55
2022/01/08 02:57:49;;;;;;;12.60;8.82;;;;;;;3.79;74.31;99985.38;5080576;28;20154;-55
2022/01/08 03:00:18;;;;;;;13.07;9.10;;;;;;;3.80;74.34;99984.53;5096069;28;20107;-55
2022/01/08 03:02:46;;;;;;;12.15;9.30;;;;;;;3.81;74.38;99988.88;5095999;28;20040;-55
2022/01/08 03:05:12;;;;;;;13.55;10.55;;;;;;;3.80;74.47;99981.94;5095514;28;20051;-56
2022/01/08 03:07:38;;;;;;;11.70;9.18;;;;;;;3.83;74.39;99977.63;5095765;28;20032;-55
2022/01/08 03:10:06;;;;;;;14.77;10.02;;;;;;;3.82;74.35;99977.59;5095519;28;20040;-56
2022/01/08 03:12:32;;;;;;;14.65;10.25;;;;;;;3.82;74.37;99973.25;5094800;28;20496;-55
2022/01/08 03:14:57;;;;;;;11.30;8.52;;;;;;;3.85;74.36;99980.19;5096115;28;20115;-55
2022/01/08 03:17:23;;;;;;;12.70;9.50;;;;;;;3.83;74.30;99976.72;5095430;28;20146;-55
2022/01/08 03:19:53;;;;;;;11.20;7.88;;;;;;;3.82;74.55;99981.06;5096295;28;20036;-56
2022/01/08 03:22:19;;;;;;;12.20;9.35;;;;;;;3.84;74.53;99981.06;5096117;28;20039;-57
2022/01/08 03:24:45;;;;;;;12.32;9.52;;;;;;;3.83;74.52;99975.00;5088514;28;20487;-56
2022/01/08 03:27:12;;;;;;;13.48;9.43;;;;;;;3.82;74.52;99981.06;5078589;28;20032;-55
2022/01/08 03:29:37;;;;;;;10.85;8.88;;;;;;;3.83;74.48;99974.13;5095282;28;20780;-56
2022/01/08 03:32:03;;;;;;;12.88;9.50;;;;;;;3.82;74.50;99968.06;5094522;28;20135;-57
2022/01/08 03:34:28;;;;;;;13.45;9.48;;;;;;;3.80;74.58;99963.75;5075396;28;20075;-54
2022/01/08 03:36:54;;;;;;;12.45;8.40;;;;;;;3.82;74.58;99968.06;5077285;28;20096;-54
2022/01/08 03:39:21;;;;;;;12.15;8.75;;;;;;;3.79;74.60;99960.28;5094362;28;20032;-56
2022/01/08 03:41:46;;;;;;;12.43;9.20;;;;;;;3.80;74.60;99958.56;5091284;28;20036;-56
2022/01/08 03:44:12;;;;;;;12.27;9.30;;;;;;;3.83;74.65;99948.13;5095028;28;20039;-55
2022/01/08 03:46:38;;;;;;;10.52;8.05;;;;;;;3.84;74.53;99949.88;5095223;28;20036;-56
2022/01/08 03:51:31;;;;;;;12.27;9.65;;;;;;;3.84;74.62;99948.16;5095248;28;20034;-56
2022/01/08 03:53:57;;;;;;;13.02;9.20;;;;;;;3.82;74.65;99941.22;5095458;28;20134;-56
2022/01/08 03:56:23;;;;;;;14.57;9.98;;;;;;;3.83;74.68;99946.44;5095107;28;20524;-56
2022/01/08 03:58:49;;;;;;;13.38;9.60;;;;;;;3.83;74.80;99948.13;5079563;28;20098;-55
2022/01/08 04:01:14;;;;;;;11.27;8.27;;;;;;;3.85;74.78;99939.47;5074801;28;20036;-56
2022/01/08 04:03:40;;;;;;;12.13;9.45;;;;;;;3.85;74.76;99941.22;5074869;28;20028;-56
2022/01/08 04:06:05;;;;;;;13.00;9.40;;;;;;;3.89;74.68;99943.78;5074795;28;20514;-56
2022/01/08 04:08:31;;;;;;;12.45;8.50;;;;;;;3.91;74.53;99938.59;5075245;28;20547;-55
2022/01/08 04:10:56;;;;;;;12.45;9.25;;;;;;;3.92;74.55;99941.19;5091096;28;20101;-56
2022/01/08 04:13:25;;;;;;;12.15;9.05;;;;;;;3.91;74.47;99925.59;5094072;28;20089;-55
2022/01/08 04:15:56;;;;;;;13.23;9.90;;;;;;;3.87;74.61;99929.97;5094667;28;20534;-54
2022/01/08 04:18:21;;;;;;;12.70;9.43;;;;;;;3.87;74.63;99923.88;5093625;28;20052;-55
2022/01/08 04:21:58;;;;;;;11.73;8.98;;;;;;;3.85;74.82;99925.63;5093947;28;20537;-55
2022/01/08 04:23:35;;;;;;;10.15;7.80;;;;;;;3.87;74.79;99913.47;5088398;28;20119;-55
2022/01/08 04:26:01;;;;;;;11.73;8.73;;;;;;;3.90;74.57;99911.72;5086301;28;20079;-55
2022/01/08 04:28:26;;;;;;;11.18;8.52;;;;;;;3.91;74.54;99920.38;5073733;28;20032;-55
2022/01/08 04:30:51;;;;;;;11.10;8.63;;;;;;;3.91;74.54;99915.19;5089404;28;20043;-55
2022/01/08 04:33:17;;;;;;;12.13;9.23;;;;;;;3.84;74.55;99909.16;5094081;28;20036;-56
2022/01/08 04:35:43;;;;;;;12.85;9.57;;;;;;;3.82;74.75;99913.47;5092394;28;20089;-54
2022/01/08 04:38:09;;;;;;;10.50;8.55;;;;;;;3.81;74.84;99905.69;5094187;28;20035;-57
2022/01/08 04:40:35;;;;;;;11.40;8.05;;;;;;;3.82;74.75;99908.28;5093210;28;20024;-55
2022/01/08 04:43:01;;;;;;;11.68;8.85;;;;;;;3.82;74.69;99920.41;5091097;28;20062;-55
2022/01/08 04:45:30;;;;;;;12.07;8.63;;;;;;;3.78;74.90;99918.69;5080856;28;20171;-55
2022/01/08 04:47:57;;;;;;;10.93;8.00;;;;;;;3.78;74.91;99921.28;5074733;28;20033;-55
2022/01/08 04:50:23;;;;;;;9.88;8.00;;;;;;;3.77;74.83;99914.38;5072771;28;20097;-55
2022/01/08 04:52:49;;;;;;;12.13;9.52;;;;;;;3.69;75.07;99914.38;5074042;28;20029;-56
2022/01/08 04:55:14;;;;;;;10.13;8.60;;;;;;;3.67;75.21;99917.00;5076603;28;20059;-57
2022/01/08 04:57:40;;;;;;;9.02;7.45;;;;;;;3.60;75.54;99909.19;5074072;28;20037;-55
2022/01/08 05:00:06;;;;;;;11.48;7.97;;;;;;;3.66;75.41;99906.56;5073612;28;20487;-56
2022/01/08 05:02:31;;;;;;;9.98;8.23;;;;;;;3.67;75.44;99905.69;5084211;28;20039;-55
2022/01/08 05:04:57;;;;;;;9.10;7.43;;;;;;;3.64;75.40;99911.78;5093698;28;20116;-56
2022/01/08 05:07:22;;;;;;;12.00;8.15;;;;;;;3.62;75.59;99912.66;5094098;28;20364;-56
2022/01/08 05:09:49;;;;;;;9.95;7.85;;;;;;;3.67;75.43;99911.78;5079457;28;20460;-56
2022/01/08 05:12:14;;;;;;;8.35;7.30;;;;;;;3.72;75.31;99909.19;5094079;28;20039;-55
2022/01/08 05:14:42;;;;;;;9.57;7.70;;;;;;;3.76;75.06;99910.03;5094036;28;20036;-56
2022/01/08 05:17:07;;;;;;;10.45;8.15;;;;;;;3.77;75.06;99899.63;5083786;28;20044;-56
2022/01/08 05:20:05;;;;;;;10.60;8.20;;;;;;;3.79;74.98;99894.44;5075682;28;20032;-54
2022/01/08 05:22:27;;;;;;;10.10;7.90;;;;;;;3.73;75.27;99894.44;5078451;28;20056;-56
2022/01/08 05:24:52;;;;;;;9.55;8.05;;;;;;;3.75;75.12;99893.59;5091412;28;20054;-56
2022/01/08 05:27:18;;;;;;;10.85;8.95;;;;;;;3.77;74.94;99890.97;5093432;28;20032;-56
2022/01/08 05:29:45;;;;;;;9.77;7.97;;;;;;;3.79;74.99;99886.63;5079561;28;20081;-57
2022/01/08 05:32:16;;;;;;;10.15;8.35;;;;;;;3.76;75.15;99882.31;5073378;28;20060;-58
2022/01/08 05:34:43;;;;;;;9.45;7.07;;;;;;;3.76;75.00;99881.47;5073089;28;20094;-58
2022/01/08 05:37:09;;;;;;;12.80;9.05;;;;;;;3.72;75.13;99884.94;5076024;28;20113;-56
2022/01/08 05:39:34;;;;;;;10.25;8.65;;;;;;;3.68;75.29;99877.13;5086911;28;20125;-56
2022/01/08 05:41:59;;;;;;;9.60;8.00;;;;;;;3.66;75.29;99878.00;5090729;28;20119;-56
2022/01/08 05:44:25;;;;;;;10.43;8.18;;;;;;;3.64;75.36;99884.94;5085795;28;20028;-56
2022/01/08 05:46:50;;;;;;;11.73;9.05;;;;;;;3.61;75.52;99878.00;5093377;28;20081;-56
2022/01/08 05:49:17;;;;;;;11.15;8.63;;;;;;;3.62;75.48;99882.31;5088461;28;20043;-55
2022/01/08 05:51:43;;;;;;;10.27;8.05;;;;;;;3.60;75.75;99883.22;5093213;28;20040;-55
2022/01/08 05:54:08;;;;;;;11.60;8.80;;;;;;;3.68;75.49;99890.13;5081953;28;20043;-56
2022/01/08 05:56:34;;;;;;;11.15;8.55;;;;;;;3.75;75.14;99890.09;5091863;28;20036;-56
2022/01/08 05:59:00;;;;;;;11.50;8.90;;;;;;;3.74;75.11;99896.19;5092103;28;20383;-58
2022/01/08 06:01:26;;;;;;;11.80;9.20;;;;;;;3.76;75.26;99894.44;5072835;28;20063;-56
2022/01/08 06:03:52;;;;;;;11.02;8.65;;;;;;;3.72;75.14;99887.53;5073397;28;20036;-56
2022/01/08 06:06:17;;;;;;;11.50;8.88;;;;;;;3.72;75.13;99882.34;5073071;28;20433;-57
2022/01/08 06:08:42;;;;;;;11.13;8.60;;;;;;;3.74;75.07;99901.38;5085470;28;20032;-59
2022/01/08 06:11:08;;;;;;;12.70;9.57;;;;;;;3.79;75.03;99890.13;5077448;28;20040;-58
2022/01/08 06:13:33;;;;;;;11.23;8.43;;;;;;;3.80;74.92;99894.44;5085445;28;20063;-56
2022/01/08 06:15:59;;;;;;;10.70;8.20;;;;;;;3.81;74.76;99892.69;5077897;28;20040;-57
2022/01/08 06:18:24;;;;;;;12.27;9.32;;;;;;;3.82;74.86;99899.63;5083489;28;20039;-57
2022/01/08 06:20:51;;;;;;;14.07;10.00;;;;;;;3.87;74.67;99898.75;5093058;28;20028;-57
2022/01/08 06:23:16;;;;;;;15.07;12.73;;;;;;;3.88;74.54;99903.09;5074828;28;20043;-58
2022/01/08 06:25:43;;;;;;;13.90;10.35;;;;;;;3.87;74.58;99903.97;5092706;28;20028;-57
2022/01/08 06:28:12;;;;;;;11.52;9.27;;;;;;;3.81;74.85;99908.28;5082292;28;20067;-57
2022/01/08 06:30:37;;;;;;;11.90;9.48;;;;;;;3.84;74.78;99910.91;5072232;28;20028;-58
2022/01/08 06:33:03;;;;;;;12.88;10.80;;;;;;;3.84;74.79;99908.28;5080547;28;20550;-58
2022/01/08 06:35:29;;;;;;;17.15;12.90;;;;;;;3.97;74.23;99912.59;5089134;28;20027;-58
2022/01/08 06:37:55;;;;;;;26.92;18.25;;;;;;;3.99;74.20;99909.97;5091224;28;20032;-58
2022/01/08 06:40:21;;;;;;;85.75;55.78;;;;;;;4.05;73.94;99918.63;5089843;28;20089;-59
2022/01/08 06:42:46;;;;;;;29.30;21.67;;;;;;;4.08;73.69;99913.44;5078095;28;20032;-57
2022/01/08 06:45:12;;;;;;;31.10;24.50;;;;;;;4.09;73.65;99909.09;5076174;28;20036;-58
2022/01/08 06:47:37;;;;;;;23.88;20.10;;;;;;;4.07;73.56;99916.03;5076137;28;20039;-58
2022/01/08 06:50:04;;;;;;;19.23;14.98;;;;;;;4.05;73.76;99917.78;5076278;28;20036;-57
2022/01/08 06:52:32;;;;;;;19.10;15.82;;;;;;;4.06;73.75;99912.56;5074695;28;20040;-56
2022/01/08 06:54:59;;;;;;;19.02;14.75;;;;;;;4.08;73.64;99913.44;5090590;28;20511;-58
2022/01/08 06:57:24;;;;;;;17.35;13.70;;;;;;;4.03;73.97;99904.78;5096311;28;20024;-58
2022/01/08 06:59:49;;;;;;;19.60;16.02;;;;;;;4.02;73.98;99913.44;5094780;28;20040;-57
2022/01/08 07:02:15;;;;;;;16.75;12.52;;;;;;;4.04;74.03;99903.91;5094450;28;20031;-58
2022/01/08 07:04:40;;;;;;;17.23;13.25;;;;;;;4.06;74.04;99909.97;5096268;28;20024;-58
2022/01/08 07:07:06;;;;;;;21.95;14.90;;;;;;;4.04;74.15;99906.50;5096513;28;20387;-58
2022/01/08 07:09:31;;;;;;;22.25;13.38;;;;;;;4.01;74.29;99906.50;5077389;28;20044;-57
2022/01/08 07:11:56;;;;;;;22.52;13.20;;;;;;;4.00;74.25;99915.19;5094367;28;20048;-59
2022/01/08 07:14:22;;;;;;;27.75;15.63;;;;;;;4.02;74.29;99909.97;5094105;28;20043;-58
2022/01/08 07:16:49;;;;;;;20.15;13.07;;;;;;;4.02;74.41;99904.78;5083981;28;20045;-57
2022/01/08 07:19:14;;;;;;;20.88;15.13;;;;;;;3.99;74.42;99905.66;5090879;28;20123;-57
2022/01/08 07:21:40;;;;;;;21.55;13.70;;;;;;;3.97;74.55;99897.00;5093371;28;20119;-56
2022/01/08 07:24:05;;;;;;;19.17;13.48;;;;;;;4.03;74.42;99888.31;5075333;28;20036;-58
2022/01/08 07:26:30;;;;;;;29.65;25.63;;;;;;;4.01;74.35;99885.72;5079854;28;20106;-57
2022/01/08 07:28:56;;;;;;;21.63;19.17;;;;;;;4.03;74.46;99881.41;5083364;28;20094;-55
2022/01/08 07:31:22;;;;;;;17.33;12.93;;;;;;;4.05;74.44;99883.97;5076733;28;20460;-53
2022/01/08 07:33:49;;;;;;;18.58;13.75;;;;;;;4.09;74.26;99880.50;5075185;28;20048;-55
2022/01/08 07:36:17;;;;;;;21.75;15.60;;;;;;;4.07;74.01;99875.31;5077134;28;20093;-55
2022/01/08 07:38:43;;;;;;;26.00;20.60;;;;;;;4.07;74.35;99896.13;5094352;28;20042;-54
2022/01/08 07:41:08;;;;;;;21.58;14.07;;;;;;;4.11;74.24;99907.34;5095688;28;20032;-54
2022/01/08 07:43:34;;;;;;;19.90;14.32;;;;;;;4.11;74.16;99899.53;5095467;28;20375;-55
2022/01/08 07:45:59;;;;;;;21.92;15.70;;;;;;;4.08;74.31;99915.19;5095530;28;20056;-54
2022/01/08 07:48:25;;;;;;;20.75;13.98;;;;;;;4.07;74.35;99914.31;5094471;28;20043;-55
2022/01/08 07:50:50;;;;;;;23.50;15.18;;;;;;;4.07;74.50;99914.31;5095648;28;20032;-55
2022/01/08 07:53:15;;;;;;;18.75;12.90;;;;;;;4.13;74.35;99916.03;5094805;28;20434;-55
2022/01/08 07:55:41;;;;;;;20.10;13.10;;;;;;;4.18;74.30;99911.66;5094991;28;20032;-56
2022/01/08 07:58:06;;;;;;;19.02;13.30;;;;;;;4.16;74.39;99916.88;5094185;28;20039;-56
2022/01/08 08:00:32;;;;;;;19.02;13.07;;;;;;;4.16;74.34;99906.47;5093834;28;20161;-55
2022/01/08 08:02:57;;;;;;;20.80;14.05;;;;;;;4.21;74.24;99914.25;5093861;28;20039;-57
2022/01/08 08:05:22;;;;;;;19.15;12.60;;;;;;;4.16;74.47;99919.47;5093940;28;20099;-55
2022/01/08 08:07:48;;;;;;;21.38;13.35;;;;;;;4.18;74.40;99912.53;5094075;28;20058;-56
2022/01/08 08:10:19;;;;;;;21.25;13.35;;;;;;;4.22;74.40;99908.19;5093730;28;20036;-56
2022/01/08 08:12:45;;;;;;;23.02;15.05;;;;;;;4.25;74.35;99912.53;5093077;28;20032;-56
2022/01/08 08:15:15;;;;;;;23.17;15.18;;;;;;;4.29;74.12;99902.09;5094946;28;20525;-56
2022/01/08 08:17:42;;;;;;;23.92;15.23;;;;;;;4.38;74.09;99903.78;5094312;28;20174;-55
2022/01/08 08:20:08;;;;;;;21.92;14.02;;;;;;;4.39;73.85;99893.41;5093798;28;20391;-58
2022/01/08 08:22:33;;;;;;;23.38;15.50;;;;;;;4.32;74.00;99885.63;5093671;28;20024;-57
2022/01/08 08:24:59;;;;;;;21.48;13.50;;;;;;;4.34;74.08;99879.53;5093911;28;20600;-59
2022/01/08 08:27:24;;;;;;;22.00;13.88;;;;;;;4.36;73.99;99877.78;5094065;28;20032;-55
2022/01/08 08:29:49;;;;;;;21.30;14.00;;;;;;;4.32;74.05;99885.63;5094616;28;20064;-56
2022/01/08 08:32:15;;;;;;;23.40;15.18;;;;;;;4.38;73.90;99885.56;5094648;28;20067;-55
2022/01/08 08:34:41;;;;;;;22.30;14.88;;;;;;;4.36;73.99;99887.34;5094339;28;20488;-56
2022/01/08 08:37:06;;;;;;;23.73;15.35;;;;;;;4.43;73.99;99883.84;5093121;28;20044;-56
2022/01/08 08:39:32;;;;;;;25.35;15.07;;;;;;;4.44;73.71;99883.81;5093509;28;20062;-59
2022/01/08 08:41:57;;;;;;;22.27;15.38;;;;;;;4.49;73.68;99882.94;5093460;28;20050;-55
2022/01/08 08:44:23;;;;;;;19.23;12.90;;;;;;;4.46;73.79;99883.81;5094477;28;20043;-55
2022/01/08 08:46:48;;;;;;;23.30;15.77;;;;;;;4.46;73.63;99878.59;5094543;28;20053;-56
2022/01/08 08:49:14;;;;;;;21.92;14.77;;;;;;;4.50;73.52;99880.31;5094541;28;20376;-56
2022/01/08 08:51:39;;;;;;;23.02;14.55;;;;;;;4.47;73.65;99876.84;5094283;28;20110;-56
2022/01/08 08:54:05;;;;;;;24.20;15.35;;;;;;;4.50;73.57;99872.50;5094326;28;20118;-57
2022/01/08 08:56:30;;;;;;;37.22;21.73;;;;;;;4.48;73.69;99873.41;5093971;28;20036;-56
2022/01/08 08:58:56;;;;;;;39.85;22.05;;;;;;;4.47;73.81;99880.34;5093002;28;20035;-56
2022/01/08 09:01:22;;;;;;;60.75;28.63;;;;;;;4.52;73.65;99873.38;5092524;28;20028;-56
2022/01/08 09:03:48;;;;;;;54.70;28.42;;;;;;;4.58;73.59;99873.34;5094120;28;20035;-56
2022/01/08 09:06:13;;;;;;;86.13;51.33;;;;;;;4.59;73.58;99869.03;5093618;28;20036;-55
2022/01/08 09:08:38;;;;;;;46.90;29.50;;;;;;;4.59;73.67;99875.09;5094060;28;20039;-56
2022/01/08 09:11:04;;;;;;;31.30;20.10;;;;;;;4.67;73.58;99870.69;5094010;28;20493;-55
2022/01/08 09:13:29;;;;;;;24.58;17.05;;;;;;;4.79;73.18;99872.38;5094047;28;20143;-55
2022/01/08 09:15:54;;;;;;;28.15;19.10;;;;;;;4.88;73.08;99867.09;5094390;28;20398;-54
2022/01/08 09:18:21;;;;;;;30.92;19.52;;;;;;;5.02;72.50;99874.78;5092685;28;20078;-57
2022/01/08 09:20:46;;;;;;;24.30;16.38;;;;;;;5.00;72.55;99865.28;5094064;28;20069;-55
2022/01/08 09:23:13;;;;;;;24.00;15.60;;;;;;;5.09;72.28;99865.22;5093797;28;20036;-55
2022/01/08 09:25:38;;;;;;;26.83;17.73;;;;;;;5.06;72.21;99860.88;5093555;28;20109;-56
2022/01/08 09:28:04;;;;;;;26.77;17.67;;;;;;;5.06;72.29;99868.69;5093744;28;20471;-56
2022/01/08 09:30:29;;;;;;;24.58;17.73;;;;;;;5.05;72.47;99856.56;5093773;28;20116;-56
2022/01/08 09:32:55;;;;;;;22.67;15.32;;;;;;;5.19;72.21;99861.66;5094150;28;20054;-56
2022/01/08 09:35:22;;;;;;;19.98;15.00;;;;;;;5.33;71.52;99858.94;5093841;28;20055;-57
2022/01/08 09:37:48;;;;;;;26.92;18.13;;;;;;;5.38;71.26;99862.34;5093745;28;20036;-56
2022/01/08 09:40:16;;;;;;;25.67;17.30;;;;;;;5.38;71.25;99859.75;5093373;28;20032;-56
2022/01/08 09:42:43;;;;;;;26.92;19.05;;;;;;;5.40;70.87;99861.47;5092299;28;20115;-56
2022/01/08 09:45:09;;;;;;;30.90;20.42;;;;;;;5.40;70.90;99855.41;5093641;28;20032;-55
2022/01/08 09:47:35;;;;;;;28.52;18.20;;;;;;;5.47;70.79;99862.28;5092631;28;20028;-56
2022/01/08 09:50:02;;;;;;;29.52;16.77;;;;;;;5.48;70.56;99861.41;5093572;28;20040;-54
2022/01/08 09:52:30;;;;;;;24.35;15.48;;;;;;;5.47;70.46;99858.84;5091999;28;20028;-56
2022/01/08 09:54:55;;;;;;;23.20;15.55;;;;;;;5.48;70.33;99847.53;5093092;28;20028;-55
2022/01/08 09:57:21;;;;;;;21.80;14.77;;;;;;;5.45;70.28;99856.22;5093512;28;20383;-55
2022/01/08 09:59:46;;;;;;;22.98;16.38;;;;;;;5.46;70.43;99865.75;5093690;28;20115;-55
2022/01/08 10:02:12;;;;;;;23.15;16.77;;;;;;;5.38;70.61;99867.56;5093206;28;20024;-55
2022/01/08 10:04:38;;;;;;;23.38;16.92;;;;;;;5.33;70.69;99854.59;5093435;28;20451;-55
2022/01/08 10:07:25;;;;;;;21.13;15.68;;;;;;;5.29;70.47;99854.63;5093445;28;20039;-55
2022/01/08 10:10:19;;;;;;;19.02;14.00;;;;;;;5.30;70.43;99856.34;5093398;28;20031;-55
2022/01/08 10:12:48;;;;;;;19.27;12.63;;;;;;;5.36;70.85;99856.31;5075631;28;20476;-55
2022/01/08 10:18:02;;;;;;;20.60;14.35;;;;;;;5.29;70.73;99852.03;5095590;28;20053;-55
2022/01/08 10:20:36;;;;;;;24.67;16.30;;;;;;;5.21;70.81;99843.41;5097236;28;20111;-55
2022/01/08 10:23:25;;;;;;;21.77;15.35;;;;;;;5.23;70.80;99836.47;5097031;28;20397;-56
2022/01/08 10:26:05;;;;;;;25.10;18.58;;;;;;;5.16;70.95;99840.84;5097182;28;20024;-55
2022/01/08 10:28:42;;;;;;;23.35;15.88;;;;;;;5.27;70.73;99839.03;5096222;28;20051;-55
2022/01/08 10:31:23;;;;;;;25.88;18.42;;;;;;;5.30;70.60;99831.16;5097097;28;20040;-56
2022/01/08 10:34:18;;;;;;;25.35;18.40;;;;;;;5.40;70.61;99831.97;5096808;28;20384;-56
2022/01/08 10:36:46;;;;;;;31.67;20.92;;;;;;;5.41;70.33;99834.53;5092840;28;20503;-55
2022/01/08 10:39:19;;;;;;;26.77;18.63;;;;;;;5.30;70.44;99827.69;5097103;28;20036;-54
2022/01/08 10:41:45;;;;;;;;;;;;;;;5.37;70.28;99829.38;5097326;28;20068;-56
2022/01/08 10:44:22;;;;;;;25.48;18.17;;;;;;;5.26;70.67;99820.78;5095473;28;19912;-56
2022/01/08 10:46:57;;;;;;;33.63;22.27;;;;;;;5.38;70.52;99820.66;5096507;28;20024;-57
2022/01/08 10:49:34;;;;;;;22.73;16.85;;;;;;;5.39;70.48;99818.06;5095826;28;20375;-55
2022/01/08 10:52:02;;;;;;;24.20;17.20;;;;;;;5.43;70.26;99814.56;5095511;28;20032;-56
2022/01/08 10:54:30;;;;;;;19.52;14.30;;;;;;;5.48;70.14;99822.31;5096648;28;20421;-55
2022/01/08 10:57:00;;;;;;;20.85;14.35;;;;;;;5.47;70.07;99818.00;5096587;28;20028;-57
2022/01/08 10:59:26;;;;;;;20.77;14.10;;;;;;;5.50;70.13;99823.16;5096151;28;20477;-56
2022/01/08 11:01:58;;;;;;;23.92;15.80;;;;;;;5.47;70.10;99818.00;5096138;28;20031;-56
2022/01/08 11:04:35;;;;;;;23.70;15.35;;;;;;;5.47;70.16;99823.22;5096365;28;20028;-56
2022/01/08 11:07:14;;;;;;;26.20;16.52;;;;;;;5.47;70.11;99815.41;5096645;28;20043;-54
2022/01/08 11:09:42;;;;;;;19.02;13.25;;;;;;;5.43;70.14;99811.09;5095097;28;20459;-56
2022/01/08 11:12:14;;;;;;;20.08;14.60;;;;;;;5.42;69.93;99798.91;5096014;28;20024;-56
2022/01/08 11:17:33;;;;;;;20.35;14.75;;;;;;;5.26;70.31;99807.75;5096162;28;20067;-55
2022/01/08 11:20:09;;;;;;;16.98;12.77;;;;;;;5.33;70.14;99804.22;5095965;28;20477;-57
2022/01/08 11:22:36;;;;;;;18.55;12.90;;;;;;;5.31;70.27;99801.66;5095754;28;20036;-56
2022/01/08 11:25:21;;;;;;;16.80;12.80;;;;;;;5.41;69.83;99790.25;5096621;28;20119;-57
2022/01/08 11:27:52;;;;;;;16.58;12.40;;;;;;;5.49;69.85;99787.56;5095609;28;20040;-55
2022/01/08 11:30:23;;;;;;;18.55;14.15;;;;;;;5.61;69.22;99782.22;5096299;28;20059;-55
2022/01/08 11:32:51;;;;;;;18.38;13.60;;;;;;;5.73;68.99;99786.44;5095683;28;20036;-56
2022/01/08 11:35:17;;;;;;;27.77;20.90;;;;;;;5.64;68.93;99783.94;5096070;28;20048;-56
2022/01/08 11:37:46;;;;;;;19.60;14.40;;;;;;;5.51;69.04;99790.16;5095636;28;20451;-57
2022/01/08 11:40:15;;;;;;;16.27;12.90;;;;;;;5.37;69.54;99795.50;5095777;28;20024;-56
2022/01/08 11:42:41;;;;;;;19.92;12.77;;;;;;;5.31;69.63;99792.97;5093880;28;20055;-58
2022/01/08 11:45:10;;;;;;;16.73;12.20;;;;;;;5.27;69.67;99796.50;5094724;28;20035;-56
2022/01/08 11:47:36;;;;;;;16.35;12.95;;;;;;;5.17;69.85;99787.88;5095219;28;20028;-55
2022/01/08 11:50:04;;;;;;;16.20;12.15;;;;;;;5.18;69.73;99784.38;5095769;28;20081;-56